Terminal Aerodrome Forecast
Issued by NWS

Home | Current Version | Previous Version | Text Only | Print | Product List | Glossary On
Versions: 1 2 3 4 5 6 7 8 9 10 11 12 13 14 15 16 17 18 19 20 21 22 23 24 25 26 27 28 29 30 31 32 33 34 35 36 37 38
000
FTUS46 KPQR 291141
TAFONP
TAF
KONP 291141Z 2912/3012 19024G34KT 4SM -SHRA BR BKN020 OVC035
     FM291500 20022G32KT 4SM -RA BR BKN007 OVC015
     FM292100 21014G22KT 5SM -SHRA BR SCT007 BKN015 OVC030
     FM300400 25010KT P6SM -SHRA SCT015 SCT025 OVC040=

USA.gov is the U.S. government's official web portal to all federal, state and local government web resources and services.